sensor_id;sensor_type;location;lat;lon;timestamp;P1;durP1;ratioP1;P2;durP2;ratioP2
33347;SDS011;19707;51.158;17.124;2023-01-10T00:00:16;65.40;;;38.20;;
33347;SDS011;19707;51.158;17.124;2023-01-10T00:03:38;68.70;;;38.40;;
33347;SDS011;19707;51.158;17.124;2023-01-10T00:06:41;69.00;;;38.50;;
33347;SDS011;19707;51.158;17.124;2023-01-10T00:09:43;75.00;;;41.10;;
33347;SDS011;19707;51.158;17.124;2023-01-10T00:12:45;66.80;;;39.70;;
33347;SDS011;19707;51.158;17.124;2023-01-10T00:16:07;67.20;;;37.80;;
33347;SDS011;19707;51.158;17.124;2023-01-10T00:19:09;68.50;;;38.70;;
33347;SDS011;19707;51.158;17.124;2023-01-10T00:22:11;67.00;;;39.80;;
33347;SDS011;19707;51.158;17.124;2023-01-10T00:25:13;73.50;;;40.20;;
33347;SDS011;19707;51.158;17.124;2023-01-10T00:28:16;70.20;;;39.20;;
33347;SDS011;19707;51.158;17.124;2023-01-10T00:34:23;67.30;;;37.00;;
33347;SDS011;19707;51.158;17.124;2023-01-10T00:37:25;61.50;;;36.50;;
33347;SDS011;19707;51.158;17.124;2023-01-10T00:40:27;70.10;;;36.30;;
33347;SDS011;19707;51.158;17.124;2023-01-10T00:43:30;64.90;;;37.30;;
33347;SDS011;19707;51.158;17.124;2023-01-10T00:46:51;60.20;;;35.30;;
33347;SDS011;19707;51.158;17.124;2023-01-10T00:49:54;65.90;;;37.50;;
33347;SDS011;19707;51.158;17.124;2023-01-10T00:52:56;65.60;;;38.20;;
33347;SDS011;19707;51.158;17.124;2023-01-10T00:55:59;68.80;;;37.10;;
33347;SDS011;19707;51.158;17.124;2023-01-10T00:59:01;65.70;;;37.60;;
33347;SDS011;19707;51.158;17.124;2023-01-10T01:02:03;66.60;;;36.30;;
33347;SDS011;19707;51.158;17.124;2023-01-10T01:05:05;64.90;;;36.60;;
33347;SDS011;19707;51.158;17.124;2023-01-10T01:08:09;60.70;;;36.50;;
33347;SDS011;19707;51.158;17.124;2023-01-10T01:11:12;65.10;;;35.60;;
33347;SDS011;19707;51.158;17.124;2023-01-10T01:14:14;71.50;;;35.50;;
33347;SDS011;19707;51.158;17.124;2023-01-10T01:17:16;62.00;;;35.30;;
33347;SDS011;19707;51.158;17.124;2023-01-10T01:20:19;57.80;;;33.70;;
33347;SDS011;19707;51.158;17.124;2023-01-10T01:23:22;61.10;;;34.80;;
33347;SDS011;19707;51.158;17.124;2023-01-10T01:26:25;67.10;;;35.20;;
33347;SDS011;19707;51.158;17.124;2023-01-10T01:29:27;58.00;;;33.10;;
33347;SDS011;19707;51.158;17.124;2023-01-10T01:32:29;64.60;;;37.00;;
33347;SDS011;19707;51.158;17.124;2023-01-10T01:35:32;64.60;;;36.30;;
33347;SDS011;19707;51.158;17.124;2023-01-10T01:38:38;67.30;;;36.40;;
33347;SDS011;19707;51.158;17.124;2023-01-10T01:41:42;64.60;;;37.70;;
33347;SDS011;19707;51.158;17.124;2023-01-10T01:45:47;69.70;;;37.50;;
33347;SDS011;19707;51.158;17.124;2023-01-10T01:48:36;57.80;;;34.70;;
33347;SDS011;19707;51.158;17.124;2023-01-10T01:51:40;59.50;;;32.50;;
33347;SDS011;19707;51.158;17.124;2023-01-10T01:54:47;56.40;;;32.40;;
33347;SDS011;19707;51.158;17.124;2023-01-10T01:57:52;58.40;;;32.20;;
33347;SDS011;19707;51.158;17.124;2023-01-10T02:00:56;59.80;;;34.40;;
33347;SDS011;19707;51.158;17.124;2023-01-10T02:04:06;62.80;;;35.20;;
33347;SDS011;19707;51.158;17.124;2023-01-10T02:07:11;60.50;;;36.50;;
33347;SDS011;19707;51.158;17.124;2023-01-10T02:10:15;63.80;;;35.30;;
33347;SDS011;19707;51.158;17.124;2023-01-10T02:13:21;63.00;;;35.70;;
33347;SDS011;19707;51.158;17.124;2023-01-10T02:16:25;57.10;;;35.10;;
33347;SDS011;19707;51.158;17.124;2023-01-10T02:33:28;61.00;;;35.20;;
33347;SDS011;19707;51.158;17.124;2023-01-10T02:40:12;55.30;;;33.90;;
33347;SDS011;19707;51.158;17.124;2023-01-10T02:43:21;64.20;;;33.20;;
33347;SDS011;19707;51.158;17.124;2023-01-10T02:46:27;60.00;;;35.10;;
33347;SDS011;19707;51.158;17.124;2023-01-10T02:49:39;58.80;;;33.60;;
33347;SDS011;19707;51.158;17.124;2023-01-10T02:52:42;56.70;;;33.60;;
33347;SDS011;19707;51.158;17.124;2023-01-10T02:59:08;57.10;;;33.80;;
33347;SDS011;19707;51.158;17.124;2023-01-10T03:05:28;61.50;;;35.20;;
33347;SDS011;19707;51.158;17.124;2023-01-10T03:09:06;69.10;;;36.50;;
33347;SDS011;19707;51.158;17.124;2023-01-10T03:12:26;58.40;;;34.20;;
33347;SDS011;19707;51.158;17.124;2023-01-10T03:15:33;60.40;;;36.50;;
33347;SDS011;19707;51.158;17.124;2023-01-10T03:18:39;64.50;;;37.10;;
33347;SDS011;19707;51.158;17.124;2023-01-10T03:21:44;70.60;;;39.50;;
33347;SDS011;19707;51.158;17.124;2023-01-10T03:24:48;65.50;;;38.20;;
33347;SDS011;19707;51.158;17.124;2023-01-10T03:27:59;68.10;;;39.40;;
33347;SDS011;19707;51.158;17.124;2023-01-10T03:31:11;69.10;;;41.00;;
33347;SDS011;19707;51.158;17.124;2023-01-10T03:34:18;67.20;;;38.20;;
33347;SDS011;19707;51.158;17.124;2023-01-10T03:37:35;65.40;;;38.70;;
33347;SDS011;19707;51.158;17.124;2023-01-10T03:41:06;59.20;;;37.40;;
33347;SDS011;19707;51.158;17.124;2023-01-10T03:48:02;75.50;;;36.80;;
33347;SDS011;19707;51.158;17.124;2023-01-10T03:51:06;62.90;;;36.20;;
33347;SDS011;19707;51.158;17.124;2023-01-10T03:54:09;60.80;;;34.10;;
33347;SDS011;19707;51.158;17.124;2023-01-10T03:57:20;56.20;;;33.80;;
33347;SDS011;19707;51.158;17.124;2023-01-10T04:00:23;59.30;;;33.30;;
33347;SDS011;19707;51.158;17.124;2023-01-10T04:03:26;53.70;;;30.30;;
33347;SDS011;19707;51.158;17.124;2023-01-10T04:06:29;53.30;;;31.80;;
33347;SDS011;19707;51.158;17.124;2023-01-10T04:09:31;52.30;;;30.10;;
33347;SDS011;19707;51.158;17.124;2023-01-10T04:12:34;48.70;;;28.10;;
33347;SDS011;19707;51.158;17.124;2023-01-10T04:15:37;47.40;;;27.30;;
33347;SDS011;19707;51.158;17.124;2023-01-10T04:18:39;45.10;;;25.80;;
33347;SDS011;19707;51.158;17.124;2023-01-10T04:21:44;45.60;;;24.30;;
33347;SDS011;19707;51.158;17.124;2023-01-10T04:27:51;36.00;;;20.70;;
33347;SDS011;19707;51.158;17.124;2023-01-10T04:30:54;36.70;;;21.60;;
33347;SDS011;19707;51.158;17.124;2023-01-10T04:33:56;38.90;;;21.70;;
33347;SDS011;19707;51.158;17.124;2023-01-10T04:36:59;37.00;;;19.70;;
33347;SDS011;19707;51.158;17.124;2023-01-10T04:40:01;35.50;;;20.10;;
33347;SDS011;19707;51.158;17.124;2023-01-10T04:43:03;36.40;;;19.90;;
33347;SDS011;19707;51.158;17.124;2023-01-10T04:46:06;39.40;;;18.30;;
33347;SDS011;19707;51.158;17.124;2023-01-10T04:49:08;27.20;;;17.20;;
33347;SDS011;19707;51.158;17.124;2023-01-10T04:52:11;28.70;;;17.30;;
33347;SDS011;19707;51.158;17.124;2023-01-10T04:55:13;27.90;;;17.80;;
33347;SDS011;19707;51.158;17.124;2023-01-10T04:58:16;32.70;;;17.00;;
33347;SDS011;19707;51.158;17.124;2023-01-10T05:01:19;29.60;;;16.30;;
33347;SDS011;19707;51.158;17.124;2023-01-10T05:04:23;29.80;;;15.60;;
33347;SDS011;19707;51.158;17.124;2023-01-10T05:07:26;28.00;;;15.70;;
33347;SDS011;19707;51.158;17.124;2023-01-10T05:10:29;22.80;;;14.50;;
33347;SDS011;19707;51.158;17.124;2023-01-10T05:13:31;23.80;;;14.10;;
33347;SDS011;19707;51.158;17.124;2023-01-10T05:16:34;24.40;;;14.40;;
33347;SDS011;19707;51.158;17.124;2023-01-10T05:19:37;24.20;;;13.80;;
33347;SDS011;19707;51.158;17.124;2023-01-10T05:22:39;22.90;;;12.50;;
33347;SDS011;19707;51.158;17.124;2023-01-10T05:25:41;23.00;;;12.10;;
33347;SDS011;19707;51.158;17.124;2023-01-10T05:28:44;22.30;;;11.70;;
33347;SDS011;19707;51.158;17.124;2023-01-10T05:31:49;21.20;;;11.30;;
33347;SDS011;19707;51.158;17.124;2023-01-10T05:34:52;19.40;;;10.60;;
33347;SDS011;19707;51.158;17.124;2023-01-10T05:37:55;17.90;;;9.70;;
33347;SDS011;19707;51.158;17.124;2023-01-10T05:40:57;17.40;;;9.90;;
33347;SDS011;19707;51.158;17.124;2023-01-10T05:44:00;16.50;;;8.60;;
33347;SDS011;19707;51.158;17.124;2023-01-10T05:47:02;15.60;;;8.70;;
33347;SDS011;19707;51.158;17.124;2023-01-10T05:50:05;14.90;;;8.00;;
33347;SDS011;19707;51.158;17.124;2023-01-10T05:53:08;13.80;;;7.70;;
33347;SDS011;19707;51.158;17.124;2023-01-10T05:56:10;14.10;;;7.50;;
33347;SDS011;19707;51.158;17.124;2023-01-10T05:59:12;15.00;;;7.80;;
33347;SDS011;19707;51.158;17.124;2023-01-10T06:02:14;12.50;;;7.10;;
33347;SDS011;19707;51.158;17.124;2023-01-10T06:05:16;11.20;;;6.90;;
33347;SDS011;19707;51.158;17.124;2023-01-10T06:08:19;13.70;;;7.00;;
33347;SDS011;19707;51.158;17.124;2023-01-10T06:11:21;12.20;;;7.00;;
33347;SDS011;19707;51.158;17.124;2023-01-10T06:14:29;13.60;;;7.10;;
33347;SDS011;19707;51.158;17.124;2023-01-10T06:17:32;12.50;;;7.60;;
33347;SDS011;19707;51.158;17.124;2023-01-10T06:20:34;15.70;;;7.00;;
33347;SDS011;19707;51.158;17.124;2023-01-10T06:23:36;13.20;;;7.90;;
33347;SDS011;19707;51.158;17.124;2023-01-10T06:26:40;13.80;;;7.60;;
33347;SDS011;19707;51.158;17.124;2023-01-10T06:29:42;15.10;;;7.50;;
33347;SDS011;19707;51.158;17.124;2023-01-10T06:32:44;14.50;;;7.90;;
33347;SDS011;19707;51.158;17.124;2023-01-10T06:35:46;10.30;;;6.80;;
33347;SDS011;19707;51.158;17.124;2023-01-10T06:38:49;11.50;;;7.80;;
33347;SDS011;19707;51.158;17.124;2023-01-10T06:41:51;11.30;;;8.50;;
33347;SDS011;19707;51.158;17.124;2023-01-10T06:44:54;16.40;;;8.00;;
33347;SDS011;19707;51.158;17.124;2023-01-10T06:47:56;14.30;;;8.40;;
33347;SDS011;19707;51.158;17.124;2023-01-10T06:50:58;15.20;;;8.20;;
33347;SDS011;19707;51.158;17.124;2023-01-10T06:54:01;13.50;;;8.20;;
33347;SDS011;19707;51.158;17.124;2023-01-10T06:57:03;9.60;;;7.60;;
33347;SDS011;19707;51.158;17.124;2023-01-10T07:00:06;16.80;;;9.30;;
33347;SDS011;19707;51.158;17.124;2023-01-10T07:03:11;14.20;;;8.70;;
33347;SDS011;19707;51.158;17.124;2023-01-10T07:06:13;15.30;;;9.40;;
33347;SDS011;19707;51.158;17.124;2023-01-10T07:09:16;16.10;;;8.80;;
33347;SDS011;19707;51.158;17.124;2023-01-10T07:12:18;15.20;;;9.30;;
33347;SDS011;19707;51.158;17.124;2023-01-10T07:15:21;14.80;;;8.60;;
33347;SDS011;19707;51.158;17.124;2023-01-10T07:18:23;12.80;;;8.50;;
33347;SDS011;19707;51.158;17.124;2023-01-10T07:21:26;18.40;;;9.70;;
33347;SDS011;19707;51.158;17.124;2023-01-10T07:24:28;12.50;;;8.70;;
33347;SDS011;19707;51.158;17.124;2023-01-10T07:27:30;12.70;;;7.90;;
33347;SDS011;19707;51.158;17.124;2023-01-10T07:30:33;14.20;;;8.90;;
33347;SDS011;19707;51.158;17.124;2023-01-10T07:33:35;13.40;;;8.30;;
33347;SDS011;19707;51.158;17.124;2023-01-10T07:36:38;13.30;;;8.00;;
33347;SDS011;19707;51.158;17.124;2023-01-10T07:39:40;11.00;;;7.20;;
33347;SDS011;19707;51.158;17.124;2023-01-10T07:42:43;13.00;;;7.60;;
33347;SDS011;19707;51.158;17.124;2023-01-10T07:45:45;12.10;;;7.20;;
33347;SDS011;19707;51.158;17.124;2023-01-10T07:48:48;40.00;;;19.60;;
33347;SDS011;19707;51.158;17.124;2023-01-10T07:51:50;23.40;;;12.90;;
33347;SDS011;19707;51.158;17.124;2023-01-10T07:54:52;18.70;;;10.70;;
33347;SDS011;19707;51.158;17.124;2023-01-10T07:57:55;14.40;;;9.20;;
33347;SDS011;19707;51.158;17.124;2023-01-10T08:00:58;12.90;;;9.20;;
33347;SDS011;19707;51.158;17.124;2023-01-10T08:04:01;13.80;;;10.10;;
33347;SDS011;19707;51.158;17.124;2023-01-10T08:07:03;15.20;;;9.30;;
33347;SDS011;19707;51.158;17.124;2023-01-10T08:10:06;14.80;;;9.40;;
33347;SDS011;19707;51.158;17.124;2023-01-10T08:13:09;12.50;;;8.80;;
33347;SDS011;19707;51.158;17.124;2023-01-10T08:16:11;12.00;;;8.30;;
33347;SDS011;19707;51.158;17.124;2023-01-10T08:19:16;12.90;;;8.30;;
33347;SDS011;19707;51.158;17.124;2023-01-10T08:22:19;16.60;;;8.60;;
33347;SDS011;19707;51.158;17.124;2023-01-10T08:25:21;13.20;;;8.10;;
33347;SDS011;19707;51.158;17.124;2023-01-10T08:28:23;15.20;;;8.70;;
33347;SDS011;19707;51.158;17.124;2023-01-10T08:31:25;16.10;;;9.30;;
33347;SDS011;19707;51.158;17.124;2023-01-10T08:34:28;13.90;;;9.40;;
33347;SDS011;19707;51.158;17.124;2023-01-10T08:37:30;15.20;;;8.90;;
33347;SDS011;19707;51.158;17.124;2023-01-10T08:40:32;14.20;;;8.70;;
33347;SDS011;19707;51.158;17.124;2023-01-10T08:43:35;12.80;;;8.40;;
33347;SDS011;19707;51.158;17.124;2023-01-10T08:46:37;18.80;;;9.90;;
33347;SDS011;19707;51.158;17.124;2023-01-10T08:49:39;12.70;;;7.80;;
33347;SDS011;19707;51.158;17.124;2023-01-10T08:52:41;17.80;;;8.60;;
33347;SDS011;19707;51.158;17.124;2023-01-10T08:55:43;14.10;;;8.70;;
33347;SDS011;19707;51.158;17.124;2023-01-10T08:58:45;12.50;;;9.10;;
33347;SDS011;19707;51.158;17.124;2023-01-10T09:01:47;14.50;;;8.10;;
33347;SDS011;19707;51.158;17.124;2023-01-10T09:04:49;15.60;;;10.10;;
33347;SDS011;19707;51.158;17.124;2023-01-10T09:07:51;17.80;;;10.00;;
33347;SDS011;19707;51.158;17.124;2023-01-10T09:10:56;15.60;;;10.70;;
33347;SDS011;19707;51.158;17.124;2023-01-10T09:14:00;17.60;;;9.90;;
33347;SDS011;19707;51.158;17.124;2023-01-10T09:17:02;22.70;;;10.60;;
33347;SDS011;19707;51.158;17.124;2023-01-10T09:20:04;16.10;;;9.50;;
33347;SDS011;19707;51.158;17.124;2023-01-10T09:23:11;18.10;;;10.70;;
33347;SDS011;19707;51.158;17.124;2023-01-10T09:26:18;15.50;;;9.10;;
33347;SDS011;19707;51.158;17.124;2023-01-10T09:29:20;15.80;;;9.00;;
33347;SDS011;19707;51.158;17.124;2023-01-10T09:32:23;16.80;;;8.60;;
33347;SDS011;19707;51.158;17.124;2023-01-10T09:35:26;15.10;;;9.50;;
33347;SDS011;19707;51.158;17.124;2023-01-10T09:38:29;17.30;;;9.20;;
33347;SDS011;19707;51.158;17.124;2023-01-10T09:48:19;17.00;;;10.30;;
33347;SDS011;19707;51.158;17.124;2023-01-10T09:51:45;17.90;;;12.00;;
33347;SDS011;19707;51.158;17.124;2023-01-10T09:54:52;24.00;;;12.30;;
33347;SDS011;19707;51.158;17.124;2023-01-10T09:57:57;23.20;;;11.90;;
33347;SDS011;19707;51.158;17.124;2023-01-10T10:01:11;21.50;;;10.90;;
33347;SDS011;19707;51.158;17.124;2023-01-10T10:07:23;30.00;;;16.20;;
33347;SDS011;19707;51.158;17.124;2023-01-10T10:10:26;28.70;;;14.30;;
33347;SDS011;19707;51.158;17.124;2023-01-10T10:13:52;18.80;;;11.10;;
33347;SDS011;19707;51.158;17.124;2023-01-10T10:37:25;20.10;;;9.70;;
33347;SDS011;19707;51.158;17.124;2023-01-10T10:40:35;38.20;;;14.90;;
33347;SDS011;19707;51.158;17.124;2023-01-10T10:43:40;32.10;;;13.90;;
33347;SDS011;19707;51.158;17.124;2023-01-10T10:46:43;17.10;;;8.40;;
33347;SDS011;19707;51.158;17.124;2023-01-10T10:49:48;20.80;;;9.60;;
33347;SDS011;19707;51.158;17.124;2023-01-10T10:52:53;29.10;;;11.80;;
33347;SDS011;19707;51.158;17.124;2023-01-10T10:55:56;64.90;;;22.80;;
33347;SDS011;19707;51.158;17.124;2023-01-10T10:58:58;47.00;;;17.00;;
33347;SDS011;19707;51.158;17.124;2023-01-10T11:02:01;63.60;;;22.20;;
33347;SDS011;19707;51.158;17.124;2023-01-10T11:05:05;51.80;;;18.40;;
33347;SDS011;19707;51.158;17.124;2023-01-10T11:08:14;42.10;;;14.90;;
33347;SDS011;19707;51.158;17.124;2023-01-10T11:11:20;41.70;;;16.40;;
33347;SDS011;19707;51.158;17.124;2023-01-10T11:14:58;29.50;;;11.40;;
33347;SDS011;19707;51.158;17.124;2023-01-10T11:18:03;58.10;;;22.50;;
33347;SDS011;19707;51.158;17.124;2023-01-10T11:21:07;48.10;;;18.40;;
33347;SDS011;19707;51.158;17.124;2023-01-10T11:24:20;27.50;;;12.60;;
33347;SDS011;19707;51.158;17.124;2023-01-10T11:27:34;27.40;;;13.30;;
33347;SDS011;19707;51.158;17.124;2023-01-10T11:30:45;16.70;;;8.90;;
33347;SDS011;19707;51.158;17.124;2023-01-10T11:33:49;20.90;;;13.00;;
33347;SDS011;19707;51.158;17.124;2023-01-10T11:36:52;15.10;;;9.50;;
33347;SDS011;19707;51.158;17.124;2023-01-10T11:40:23;12.70;;;8.10;;
33347;SDS011;19707;51.158;17.124;2023-01-10T11:43:31;17.70;;;8.40;;
33347;SDS011;19707;51.158;17.124;2023-01-10T11:46:35;20.30;;;10.70;;
33347;SDS011;19707;51.158;17.124;2023-01-10T11:49:37;10.90;;;7.40;;
33347;SDS011;19707;51.158;17.124;2023-01-10T11:52:44;15.10;;;7.80;;
33347;SDS011;19707;51.158;17.124;2023-01-10T11:55:47;19.30;;;8.20;;
33347;SDS011;19707;51.158;17.124;2023-01-10T11:58:49;14.50;;;10.20;;
33347;SDS011;19707;51.158;17.124;2023-01-10T12:05:03;17.00;;;8.80;;
33347;SDS011;19707;51.158;17.124;2023-01-10T12:08:09;19.40;;;9.80;;
33347;SDS011;19707;51.158;17.124;2023-01-10T12:11:29;15.20;;;6.90;;
33347;SDS011;19707;51.158;17.124;2023-01-10T12:14:33;11.50;;;7.20;;
33347;SDS011;19707;51.158;17.124;2023-01-10T12:17:35;14.80;;;7.80;;
33347;SDS011;19707;51.158;17.124;2023-01-10T12:20:44;27.10;;;11.30;;
33347;SDS011;19707;51.158;17.124;2023-01-10T12:23:48;17.30;;;8.70;;
33347;SDS011;19707;51.158;17.124;2023-01-10T12:26:51;11.10;;;7.50;;
33347;SDS011;19707;51.158;17.124;2023-01-10T12:30:03;16.00;;;8.50;;
33347;SDS011;19707;51.158;17.124;2023-01-10T12:33:34;15.10;;;8.20;;
33347;SDS011;19707;51.158;17.124;2023-01-10T12:39:58;13.50;;;8.00;;
33347;SDS011;19707;51.158;17.124;2023-01-10T12:43:05;13.00;;;7.50;;
33347;SDS011;19707;51.158;17.124;2023-01-10T12:46:42;17.80;;;8.40;;
33347;SDS011;19707;51.158;17.124;2023-01-10T12:49:52;11.10;;;7.50;;
33347;SDS011;19707;51.158;17.124;2023-01-10T12:56:13;15.90;;;7.40;;
33347;SDS011;19707;51.158;17.124;2023-01-10T12:59:18;18.60;;;7.60;;
33347;SDS011;19707;51.158;17.124;2023-01-10T13:02:23;14.20;;;7.50;;
33347;SDS011;19707;51.158;17.124;2023-01-10T13:05:29;15.50;;;8.20;;
33347;SDS011;19707;51.158;17.124;2023-01-10T13:11:47;18.60;;;10.70;;
33347;SDS011;19707;51.158;17.124;2023-01-10T13:15:51;17.30;;;9.80;;
33347;SDS011;19707;51.158;17.124;2023-01-10T13:18:29;16.00;;;8.40;;
33347;SDS011;19707;51.158;17.124;2023-01-10T13:21:32;13.40;;;8.20;;
33347;SDS011;19707;51.158;17.124;2023-01-10T13:24:36;13.70;;;8.70;;
33347;SDS011;19707;51.158;17.124;2023-01-10T13:27:42;11.00;;;6.50;;
33347;SDS011;19707;51.158;17.124;2023-01-10T13:30:46;15.80;;;9.00;;
33347;SDS011;19707;51.158;17.124;2023-01-10T13:33:57;18.30;;;10.20;;
33347;SDS011;19707;51.158;17.124;2023-01-10T13:40:21;20.60;;;10.90;;
33347;SDS011;19707;51.158;17.124;2023-01-10T13:46:36;29.80;;;14.30;;
33347;SDS011;19707;51.158;17.124;2023-01-10T13:49:40;30.90;;;15.20;;
33347;SDS011;19707;51.158;17.124;2023-01-10T13:52:44;33.60;;;15.60;;
33347;SDS011;19707;51.158;17.124;2023-01-10T13:58:54;31.90;;;14.90;;
33347;SDS011;19707;51.158;17.124;2023-01-10T14:02:22;24.80;;;15.00;;
33347;SDS011;19707;51.158;17.124;2023-01-10T14:05:35;22.90;;;14.90;;
33347;SDS011;19707;51.158;17.124;2023-01-10T14:08:38;24.40;;;13.00;;
33347;SDS011;19707;51.158;17.124;2023-01-10T14:14:54;18.40;;;10.70;;
33347;SDS011;19707;51.158;17.124;2023-01-10T14:18:30;18.60;;;11.10;;
33347;SDS011;19707;51.158;17.124;2023-01-10T14:21:37;31.00;;;19.10;;
33347;SDS011;19707;51.158;17.124;2023-01-10T14:24:42;25.90;;;17.70;;
33347;SDS011;19707;51.158;17.124;2023-01-10T14:27:49;30.20;;;15.90;;
33347;SDS011;19707;51.158;17.124;2023-01-10T14:30:55;24.60;;;13.90;;
33347;SDS011;19707;51.158;17.124;2023-01-10T14:33:59;25.30;;;14.30;;
33347;SDS011;19707;51.158;17.124;2023-01-10T14:37:07;26.00;;;14.10;;
33347;SDS011;19707;51.158;17.124;2023-01-10T14:43:58;32.00;;;14.60;;
33347;SDS011;19707;51.158;17.124;2023-01-10T14:47:04;27.50;;;14.50;;
33347;SDS011;19707;51.158;17.124;2023-01-10T14:50:21;38.40;;;18.30;;
33347;SDS011;19707;51.158;17.124;2023-01-10T14:53:25;30.80;;;16.10;;
33347;SDS011;19707;51.158;17.124;2023-01-10T14:56:37;20.60;;;12.80;;
33347;SDS011;19707;51.158;17.124;2023-01-10T14:59:40;34.90;;;17.90;;
33347;SDS011;19707;51.158;17.124;2023-01-10T15:02:46;28.40;;;13.60;;
33347;SDS011;19707;51.158;17.124;2023-01-10T15:05:51;26.60;;;14.30;;
33347;SDS011;19707;51.158;17.124;2023-01-10T15:11:58;36.40;;;16.70;;
33347;SDS011;19707;51.158;17.124;2023-01-10T15:15:02;30.70;;;15.50;;
33347;SDS011;19707;51.158;17.124;2023-01-10T15:21:45;23.70;;;11.40;;
33347;SDS011;19707;51.158;17.124;2023-01-10T15:28:23;18.70;;;10.70;;
33347;SDS011;19707;51.158;17.124;2023-01-10T15:31:28;18.70;;;12.40;;
33347;SDS011;19707;51.158;17.124;2023-01-10T15:34:30;25.10;;;13.50;;
33347;SDS011;19707;51.158;17.124;2023-01-10T15:37:34;25.40;;;12.90;;
33347;SDS011;19707;51.158;17.124;2023-01-10T15:40:38;43.40;;;21.90;;
33347;SDS011;19707;51.158;17.124;2023-01-10T15:43:44;43.10;;;21.10;;
33347;SDS011;19707;51.158;17.124;2023-01-10T15:46:53;39.30;;;17.70;;
33347;SDS011;19707;51.158;17.124;2023-01-10T15:49:56;42.20;;;20.60;;
33347;SDS011;19707;51.158;17.124;2023-01-10T15:53:03;48.00;;;23.70;;
33347;SDS011;19707;51.158;17.124;2023-01-10T15:56:09;54.80;;;22.70;;
33347;SDS011;19707;51.158;17.124;2023-01-10T15:59:27;48.50;;;23.30;;
33347;SDS011;19707;51.158;17.124;2023-01-10T16:02:30;45.80;;;23.20;;
33347;SDS011;19707;51.158;17.124;2023-01-10T16:05:34;46.30;;;23.80;;
33347;SDS011;19707;51.158;17.124;2023-01-10T16:08:37;38.30;;;20.80;;
33347;SDS011;19707;51.158;17.124;2023-01-10T16:11:44;40.60;;;20.70;;
33347;SDS011;19707;51.158;17.124;2023-01-10T16:15:16;39.00;;;22.00;;
33347;SDS011;19707;51.158;17.124;2023-01-10T16:18:21;51.60;;;23.70;;
33347;SDS011;19707;51.158;17.124;2023-01-10T16:21:25;40.20;;;21.50;;
33347;SDS011;19707;51.158;17.124;2023-01-10T16:24:33;52.40;;;24.90;;
33347;SDS011;19707;51.158;17.124;2023-01-10T16:27:36;70.10;;;39.90;;
33347;SDS011;19707;51.158;17.124;2023-01-10T16:30:38;68.80;;;37.10;;
33347;SDS011;19707;51.158;17.124;2023-01-10T16:33:50;68.70;;;35.70;;
33347;SDS011;19707;51.158;17.124;2023-01-10T16:36:52;63.40;;;35.20;;
33347;SDS011;19707;51.158;17.124;2023-01-10T16:39:55;50.60;;;30.50;;
33347;SDS011;19707;51.158;17.124;2023-01-10T16:42:57;51.40;;;28.20;;
33347;SDS011;19707;51.158;17.124;2023-01-10T16:46:21;49.30;;;28.50;;
33347;SDS011;19707;51.158;17.124;2023-01-10T16:49:24;44.60;;;27.10;;
33347;SDS011;19707;51.158;17.124;2023-01-10T16:52:27;49.20;;;28.70;;
33347;SDS011;19707;51.158;17.124;2023-01-10T16:55:39;47.20;;;28.70;;
33347;SDS011;19707;51.158;17.124;2023-01-10T16:58:44;45.40;;;29.20;;
33347;SDS011;19707;51.158;17.124;2023-01-10T17:01:56;55.50;;;33.20;;
33347;SDS011;19707;51.158;17.124;2023-01-10T17:04:59;58.20;;;33.30;;
33347;SDS011;19707;51.158;17.124;2023-01-10T17:08:01;58.10;;;32.10;;
33347;SDS011;19707;51.158;17.124;2023-01-10T17:11:05;50.90;;;28.50;;
33347;SDS011;19707;51.158;17.124;2023-01-10T17:14:12;48.30;;;26.70;;
33347;SDS011;19707;51.158;17.124;2023-01-10T17:17:15;47.50;;;25.90;;
33347;SDS011;19707;51.158;17.124;2023-01-10T17:20:17;45.40;;;26.30;;
33347;SDS011;19707;51.158;17.124;2023-01-10T17:23:20;41.30;;;26.30;;
33347;SDS011;19707;51.158;17.124;2023-01-10T17:26:23;44.40;;;26.80;;
33347;SDS011;19707;51.158;17.124;2023-01-10T17:29:25;41.10;;;26.70;;
33347;SDS011;19707;51.158;17.124;2023-01-10T17:32:28;39.20;;;26.30;;
33347;SDS011;19707;51.158;17.124;2023-01-10T17:35:30;52.60;;;31.40;;
33347;SDS011;19707;51.158;17.124;2023-01-10T17:38:34;52.40;;;30.00;;
33347;SDS011;19707;51.158;17.124;2023-01-10T17:41:38;47.30;;;29.40;;
33347;SDS011;19707;51.158;17.124;2023-01-10T17:44:41;38.20;;;20.70;;
33347;SDS011;19707;51.158;17.124;2023-01-10T17:47:43;36.20;;;18.60;;
33347;SDS011;19707;51.158;17.124;2023-01-10T17:50:46;33.50;;;20.40;;
33347;SDS011;19707;51.158;17.124;2023-01-10T17:53:50;43.60;;;21.80;;
33347;SDS011;19707;51.158;17.124;2023-01-10T17:56:52;34.90;;;21.00;;
33347;SDS011;19707;51.158;17.124;2023-01-10T17:59:54;34.00;;;21.00;;
33347;SDS011;19707;51.158;17.124;2023-01-10T18:02:57;32.40;;;21.40;;
33347;SDS011;19707;51.158;17.124;2023-01-10T18:05:59;30.80;;;21.20;;
33347;SDS011;19707;51.158;17.124;2023-01-10T18:09:02;30.90;;;20.70;;
33347;SDS011;19707;51.158;17.124;2023-01-10T18:12:05;29.10;;;18.90;;
33347;SDS011;19707;51.158;17.124;2023-01-10T18:15:08;37.30;;;21.20;;
33347;SDS011;19707;51.158;17.124;2023-01-10T18:18:11;32.60;;;18.70;;
33347;SDS011;19707;51.158;17.124;2023-01-10T18:21:15;28.00;;;19.50;;
33347;SDS011;19707;51.158;17.124;2023-01-10T18:24:19;31.20;;;17.20;;
33347;SDS011;19707;51.158;17.124;2023-01-10T18:27:22;32.10;;;17.70;;
33347;SDS011;19707;51.158;17.124;2023-01-10T18:30:25;30.60;;;17.00;;
33347;SDS011;19707;51.158;17.124;2023-01-10T18:33:28;25.50;;;15.90;;
33347;SDS011;19707;51.158;17.124;2023-01-10T18:36:30;22.90;;;15.10;;
33347;SDS011;19707;51.158;17.124;2023-01-10T18:39:35;22.80;;;14.00;;
33347;SDS011;19707;51.158;17.124;2023-01-10T18:42:37;26.80;;;14.50;;
33347;SDS011;19707;51.158;17.124;2023-01-10T18:45:40;29.30;;;17.70;;
33347;SDS011;19707;51.158;17.124;2023-01-10T18:48:43;24.10;;;15.10;;
33347;SDS011;19707;51.158;17.124;2023-01-10T18:51:46;26.40;;;15.70;;
33347;SDS011;19707;51.158;17.124;2023-01-10T18:54:49;26.50;;;17.50;;
33347;SDS011;19707;51.158;17.124;2023-01-10T18:57:54;31.20;;;16.10;;
33347;SDS011;19707;51.158;17.124;2023-01-10T19:00:56;24.30;;;15.60;;
33347;SDS011;19707;51.158;17.124;2023-01-10T19:03:59;28.00;;;16.20;;
33347;SDS011;19707;51.158;17.124;2023-01-10T19:07:01;27.00;;;14.00;;
33347;SDS011;19707;51.158;17.124;2023-01-10T19:10:04;24.90;;;15.20;;
33347;SDS011;19707;51.158;17.124;2023-01-10T19:13:06;30.30;;;14.50;;
33347;SDS011;19707;51.158;17.124;2023-01-10T19:16:15;32.80;;;16.60;;
33347;SDS011;19707;51.158;17.124;2023-01-10T19:19:25;24.30;;;14.70;;
33347;SDS011;19707;51.158;17.124;2023-01-10T19:22:27;24.40;;;14.80;;
33347;SDS011;19707;51.158;17.124;2023-01-10T19:25:29;20.90;;;12.70;;
33347;SDS011;19707;51.158;17.124;2023-01-10T19:28:35;21.70;;;13.30;;
33347;SDS011;19707;51.158;17.124;2023-01-10T19:31:39;20.10;;;10.20;;
33347;SDS011;19707;51.158;17.124;2023-01-10T19:34:43;20.30;;;13.40;;
33347;SDS011;19707;51.158;17.124;2023-01-10T19:40:50;19.50;;;11.50;;